createdAt,value
2022-11-17T00:01:21.627Z,7.63
2022-11-17T00:03:49.554Z,5.80
2022-11-17T00:06:20.324Z,7.88
2022-11-17T00:08:47.624Z,6.05
2022-11-17T00:11:14.248Z,6.20
2022-11-17T00:13:59.193Z,6.80
2022-11-17T00:16:25.724Z,6.68
2022-11-17T00:19:10.882Z,5.43
2022-11-17T00:21:37.702Z,5.72
2022-11-17T00:24:04.347Z,7.00
2022-11-17T00:26:33.141Z,6.28
2022-11-17T00:29:05.045Z,7.70
2022-11-17T00:31:52.768Z,6.10
2022-11-17T00:34:22.044Z,8.20
2022-11-17T00:36:51.022Z,6.22
2022-11-17T00:39:20.267Z,8.07
2022-11-17T00:41:47.085Z,7.53
2022-11-17T00:44:14.512Z,7.40
2022-11-17T00:46:41.892Z,6.15
2022-11-17T00:49:10.224Z,6.75
2022-11-17T00:51:37.364Z,7.60
2022-11-17T00:54:05.940Z,6.82
2022-11-17T00:56:32.596Z,7.15
2022-11-17T00:58:59.657Z,6.15
2022-11-17T01:01:26.374Z,6.22
2022-11-17T01:04:02.924Z,6.32
2022-11-17T01:06:35.853Z,5.85
2022-11-17T01:09:04.937Z,6.22
2022-11-17T01:11:31.999Z,5.65
2022-11-17T01:14:00.188Z,6.85
2022-11-17T01:16:27.931Z,8.05
2022-11-17T01:18:54.517Z,7.05
2022-11-17T01:21:25.869Z,6.50
2022-11-17T01:23:54.853Z,5.80
2022-11-17T01:26:24.558Z,5.63
2022-11-17T01:28:52.061Z,5.43
2022-11-17T01:31:23.934Z,5.05
2022-11-17T01:33:50.627Z,5.85
2022-11-17T01:36:22.712Z,6.25
2022-11-17T01:38:49.622Z,5.57
2022-11-17T01:41:17.657Z,5.93
2022-11-17T01:43:51.038Z,4.88
2022-11-17T01:46:27.146Z,5.65
2022-11-17T01:49:00.473Z,4.15
2022-11-17T01:51:30.014Z,5.25
2022-11-17T01:56:31.331Z,4.93
2022-11-17T01:59:09.047Z,4.82
2022-11-17T02:01:55.497Z,4.60
2022-11-17T02:04:27.259Z,4.00
2022-11-17T02:07:01.268Z,4.38
2022-11-17T02:09:28.272Z,3.53
2022-11-17T02:11:58.758Z,3.85
2022-11-17T02:14:25.294Z,4.25
2022-11-17T02:16:51.861Z,3.45
2022-11-17T02:19:21.158Z,4.00
2022-11-17T02:21:50.665Z,3.83
2022-11-17T02:24:23.173Z,3.40
2022-11-17T02:27:01.198Z,3.70
2022-11-17T02:29:39.576Z,4.45
2022-11-17T02:32:27.995Z,3.30
2022-11-17T02:35:15.807Z,3.38
2022-11-17T02:37:48.285Z,4.10
2022-11-17T02:40:23.552Z,3.67
2022-11-17T02:43:19.004Z,5.05
2022-11-17T02:45:50.294Z,4.60
2022-11-17T02:48:25.276Z,4.43
2022-11-17T02:50:54.686Z,4.90
2022-11-17T02:53:24.176Z,5.47
2022-11-17T02:58:18.357Z,3.95
2022-11-17T03:00:54.219Z,4.22
2022-11-17T03:03:42.017Z,3.75
2022-11-17T03:06:51.573Z,3.70
2022-11-17T03:09:30.173Z,4.35
2022-11-17T03:12:21.962Z,4.55
2022-11-17T03:15:10.386Z,4.22
2022-11-17T03:17:44.643Z,4.60
2022-11-17T03:20:20.457Z,4.38
2022-11-17T03:22:52.734Z,4.22
2022-11-17T03:25:23.185Z,5.78
2022-11-17T03:27:55.951Z,4.95
2022-11-17T03:30:24.480Z,4.03
2022-11-17T03:32:55.753Z,4.63
2022-11-17T03:35:27.893Z,4.40
2022-11-17T03:37:58.276Z,4.47
2022-11-17T03:40:29.171Z,4.22
2022-11-17T03:43:00.542Z,3.72
2022-11-17T03:45:30.111Z,4.45
2022-11-17T03:50:36.883Z,4.13
2022-11-17T03:53:05.079Z,4.90
2022-11-17T03:55:41.590Z,4.18
2022-11-17T03:58:14.666Z,4.97
2022-11-17T04:00:43.125Z,4.20
2022-11-17T04:03:09.799Z,5.07
2022-11-17T04:05:36.331Z,4.30
2022-11-17T04:08:02.804Z,4.80
2022-11-17T04:10:29.275Z,5.30
2022-11-17T04:13:14.412Z,4.80
2022-11-17T04:15:59.320Z,5.22
2022-11-17T04:18:26.973Z,5.22
2022-11-17T04:20:56.217Z,5.43
2022-11-17T04:23:24.182Z,5.72
2022-11-17T04:26:14.495Z,5.28
2022-11-17T04:28:44.869Z,5.25
2022-11-17T04:31:27.317Z,4.88
2022-11-17T04:33:56.378Z,5.80
2022-11-17T04:36:25.966Z,4.90
2022-11-17T04:38:55.043Z,5.97
2022-11-17T04:41:42.123Z,4.10
2022-11-17T04:44:10.250Z,4.38
2022-11-17T04:46:38.737Z,4.57
2022-11-17T04:49:05.763Z,5.60
2022-11-17T04:51:33.274Z,4.97
2022-11-17T04:54:00.693Z,6.80
2022-11-17T04:56:27.651Z,4.47
2022-11-17T04:58:54.110Z,5.57
2022-11-17T05:01:22.380Z,5.15
2022-11-17T05:03:57.229Z,5.43
2022-11-17T05:06:29.648Z,4.90
2022-11-17T05:08:56.597Z,5.82
2022-11-17T05:11:45.117Z,6.05
2022-11-17T05:14:13.309Z,6.05
2022-11-17T05:17:00.528Z,5.45
2022-11-17T05:19:31.235Z,5.43
2022-11-17T05:21:57.801Z,5.82
2022-11-17T05:24:24.406Z,5.53
2022-11-17T05:26:50.971Z,5.47
2022-11-17T05:29:20.010Z,6.70
2022-11-17T05:31:46.926Z,5.53
2022-11-17T05:34:17.347Z,5.53
2022-11-17T05:36:44.333Z,4.47
2022-11-17T05:39:10.904Z,4.63
2022-11-17T05:41:37.407Z,5.80
2022-11-17T05:44:04.728Z,4.70
2022-11-17T05:46:31.289Z,5.40
2022-11-17T05:48:57.894Z,4.50
2022-11-17T05:51:24.639Z,4.82
2022-11-17T05:53:51.226Z,3.95
2022-11-17T05:56:29.899Z,4.93
2022-11-17T05:59:17.460Z,3.75
2022-11-17T06:02:04.790Z,4.00
2022-11-17T06:04:31.526Z,4.47
2022-11-17T06:07:00.046Z,7.53
2022-11-17T06:09:31.325Z,4.68
2022-11-17T06:12:02.564Z,5.07
2022-11-17T06:14:32.474Z,4.47
2022-11-17T06:17:04.701Z,5.28
2022-11-17T06:19:38.554Z,5.80
2022-11-17T06:22:12.135Z,5.90
2022-11-17T06:24:41.706Z,5.68
2022-11-17T06:27:08.377Z,5.00
2022-11-17T06:29:39.423Z,5.47
2022-11-17T06:32:09.527Z,5.05
2022-11-17T06:34:36.172Z,4.22
2022-11-17T06:37:02.761Z,6.70
2022-11-17T06:39:29.264Z,4.97
2022-11-17T06:41:55.765Z,5.05
2022-11-17T06:44:22.246Z,4.50
2022-11-17T06:46:49.277Z,4.40
2022-11-17T06:49:16.056Z,4.97
2022-11-17T06:51:45.408Z,4.72
2022-11-17T06:54:14.632Z,5.70
2022-11-17T06:56:41.771Z,5.45
2022-11-17T06:59:08.355Z,4.90
2022-11-17T07:01:35.046Z,6.53
2022-11-17T07:04:01.623Z,5.25
2022-11-17T07:06:28.160Z,4.78
2022-11-17T07:08:54.764Z,4.80
2022-11-17T07:11:21.366Z,5.43
2022-11-17T07:13:47.883Z,4.07
2022-11-17T07:16:23.015Z,5.40
2022-11-17T07:18:50.067Z,4.55
2022-11-17T07:21:16.639Z,4.13
2022-11-17T07:23:44.822Z,5.25
2022-11-17T07:26:11.866Z,4.28
2022-11-17T07:28:38.811Z,5.28
2022-11-17T07:31:08.014Z,3.67
2022-11-17T07:33:35.520Z,6.32
2022-11-17T07:36:07.226Z,4.50
2022-11-17T07:38:35.249Z,4.40
2022-11-17T07:41:04.180Z,4.35
2022-11-17T07:43:31.335Z,5.68
2022-11-17T07:45:57.911Z,3.72
2022-11-17T07:48:24.568Z,4.38
2022-11-17T07:50:51.149Z,5.00
2022-11-17T07:53:17.948Z,4.60
2022-11-17T07:55:44.783Z,3.80
2022-11-17T07:58:11.575Z,4.30
2022-11-17T08:00:38.179Z,4.00
2022-11-17T08:03:05.053Z,4.50
2022-11-17T08:05:41.641Z,3.78
2022-11-17T08:08:09.818Z,4.43
2022-11-17T08:10:36.438Z,3.50
2022-11-17T08:13:03.001Z,4.45
2022-11-17T08:15:30.043Z,4.22
2022-11-17T08:17:59.851Z,3.83
2022-11-17T08:20:28.687Z,4.10
2022-11-17T08:22:55.969Z,3.60
2022-11-17T08:25:24.451Z,3.92
2022-11-17T08:27:55.150Z,4.10
2022-11-17T08:30:22.633Z,4.55
2022-11-17T08:32:52.526Z,5.15
2022-11-17T08:35:21.143Z,7.38
2022-11-17T08:37:47.938Z,3.80
2022-11-17T08:40:15.025Z,5.28
2022-11-17T08:42:42.064Z,5.05
2022-11-17T08:45:09.965Z,4.80
2022-11-17T08:47:37.523Z,6.47
2022-11-17T08:50:06.166Z,4.63
2022-11-17T08:52:32.829Z,5.32
2022-11-17T08:54:59.460Z,7.88
2022-11-17T08:57:26.117Z,6.55
2022-11-17T08:59:52.641Z,4.38
2022-11-17T09:02:19.215Z,6.63
2022-11-17T09:04:46.562Z,4.85
2022-11-17T09:07:13.447Z,4.72
2022-11-17T09:09:40.103Z,5.40
2022-11-17T09:12:06.746Z,6.68
2022-11-17T09:14:33.447Z,6.57
2022-11-17T09:16:59.977Z,4.78
2022-11-17T09:19:26.874Z,4.38
2022-11-17T09:21:53.376Z,4.70
2022-11-17T09:24:19.859Z,4.93
2022-11-17T09:26:46.415Z,6.00
2022-11-17T09:29:13.069Z,5.28
2022-11-17T09:31:39.624Z,5.13
2022-11-17T09:34:06.349Z,6.40
2022-11-17T09:36:33.799Z,8.98
2022-11-17T09:39:00.996Z,4.22
2022-11-17T09:41:51.599Z,5.72
2022-11-17T09:44:34.303Z,8.25
2022-11-17T09:47:06.162Z,5.72
2022-11-17T09:49:56.755Z,4.63
2022-11-17T09:52:53.823Z,8.73
2022-11-17T09:55:20.277Z,5.78
2022-11-17T09:57:52.114Z,5.85
2022-11-17T10:00:19.547Z,5.47
2022-11-17T10:02:47.709Z,4.10
2022-11-17T10:05:26.151Z,5.28
2022-11-17T10:07:54.960Z,5.53
2022-11-17T10:10:35.135Z,5.43
2022-11-17T10:13:04.862Z,1.85
2022-11-17T10:15:42.436Z,6.13
2022-11-17T10:18:13.639Z,6.93
2022-11-17T10:20:41.340Z,7.85
2022-11-17T10:23:13.610Z,3.72
2022-11-17T10:25:55.720Z,4.07
2022-11-17T10:28:31.152Z,5.38
2022-11-17T10:31:01.501Z,4.47
2022-11-17T10:33:53.765Z,5.05
2022-11-17T10:36:28.820Z,7.78
2022-11-17T10:38:57.545Z,6.28
2022-11-17T10:41:26.949Z,4.75
2022-11-17T10:46:41.547Z,5.53
2022-11-17T10:49:34.167Z,6.38
2022-11-17T10:52:23.317Z,3.10
2022-11-17T10:54:49.959Z,6.40
2022-11-17T10:57:26.689Z,5.88
2022-11-17T10:59:57.585Z,5.50
2022-11-17T11:02:31.153Z,5.50
2022-11-17T11:05:19.904Z,4.55
2022-11-17T11:07:46.648Z,4.32
2022-11-17T11:10:20.298Z,5.80
2022-11-17T11:13:31.279Z,5.25
2022-11-17T11:15:57.857Z,5.97
2022-11-17T11:18:27.647Z,3.95
2022-11-17T11:21:09.005Z,5.80
2022-11-17T11:23:39.695Z,5.82
2022-11-17T11:26:27.481Z,5.53
2022-11-17T11:29:03.939Z,5.00
2022-11-17T11:31:42.498Z,6.45
2022-11-17T11:34:15.349Z,3.78
2022-11-17T11:36:53.949Z,7.85
2022-11-17T11:39:44.000Z,5.63
2022-11-17T11:42:10.439Z,5.82
2022-11-17T11:44:49.174Z,5.85
2022-11-17T11:47:27.534Z,5.45
2022-11-17T11:50:02.975Z,4.22
2022-11-17T11:52:38.030Z,5.32
2022-11-17T11:55:17.379Z,5.00
2022-11-17T11:57:54.579Z,4.22
2022-11-17T12:00:21.358Z,6.03
2022-11-17T12:02:58.645Z,6.82
2022-11-17T12:05:25.147Z,4.80
2022-11-17T12:08:10.201Z,3.97
2022-11-17T12:10:59.057Z,6.30
2022-11-17T12:13:26.513Z,5.28
2022-11-17T12:16:40.927Z,3.60
2022-11-17T12:19:44.785Z,5.63
2022-11-17T12:22:29.556Z,7.88
2022-11-17T12:25:20.888Z,4.40
2022-11-17T12:27:47.416Z,4.72
2022-11-17T12:30:32.693Z,5.95
2022-11-17T12:33:09.291Z,5.22
2022-11-17T12:35:40.437Z,11.35
2022-11-17T12:38:12.999Z,6.55
2022-11-17T12:40:39.567Z,6.65
2022-11-17T12:43:33.010Z,3.95
2022-11-17T12:46:04.221Z,6.53
2022-11-17T12:48:35.307Z,5.72
2022-11-17T12:51:33.239Z,9.70
2022-11-17T12:54:06.928Z,7.45
2022-11-17T12:57:12.071Z,9.27
2022-11-17T13:00:03.253Z,7.97
2022-11-17T13:02:56.027Z,10.85
2022-11-17T13:05:28.009Z,7.82
2022-11-17T13:08:21.106Z,7.72
2022-11-17T13:10:47.824Z,4.53
2022-11-17T13:13:24.684Z,8.10
2022-11-17T13:15:53.937Z,7.82
2022-11-17T13:18:23.469Z,6.53
2022-11-17T13:20:50.105Z,5.88
2022-11-17T13:23:23.419Z,5.93
2022-11-17T13:26:55.471Z,8.02
2022-11-17T13:29:23.103Z,7.05
2022-11-17T13:31:49.689Z,15.27
2022-11-17T13:34:21.212Z,7.47
2022-11-17T13:36:59.750Z,7.05
2022-11-17T13:39:28.056Z,6.93
2022-11-17T13:41:56.370Z,4.80
2022-11-17T13:44:25.627Z,4.80
2022-11-17T13:46:52.228Z,3.33
2022-11-17T13:49:38.131Z,7.13
2022-11-17T13:52:40.468Z,8.77
2022-11-17T13:55:18.107Z,9.20
2022-11-17T13:57:55.443Z,5.93
2022-11-17T14:00:22.545Z,6.50
2022-11-17T14:03:06.200Z,6.82
2022-11-17T14:05:33.238Z,7.68
2022-11-17T14:08:13.369Z,8.18
2022-11-17T14:10:40.143Z,14.02
2022-11-17T14:13:06.620Z,7.93
2022-11-17T14:15:42.870Z,6.72
2022-11-17T14:18:30.718Z,6.18
2022-11-17T14:21:17.269Z,7.85
2022-11-17T14:23:45.141Z,6.93
2022-11-17T14:26:23.435Z,7.80
2022-11-17T14:28:51.561Z,6.68
2022-11-17T14:31:18.757Z,7.63
2022-11-17T14:33:45.589Z,9.23
2022-11-17T14:36:15.843Z,7.40
2022-11-17T14:38:44.602Z,7.60
2022-11-17T14:41:11.257Z,10.07
2022-11-17T14:43:37.881Z,7.60
2022-11-17T14:46:04.530Z,7.50
2022-11-17T14:48:31.274Z,8.35
2022-11-17T14:50:59.712Z,8.52
2022-11-17T14:53:26.703Z,6.13
2022-11-17T14:55:53.670Z,8.90
2022-11-17T14:58:20.624Z,8.20
2022-11-17T15:00:47.313Z,8.95
2022-11-17T15:03:13.976Z,6.65
2022-11-17T15:05:46.147Z,7.53
2022-11-17T15:08:13.704Z,5.10
2022-11-17T15:10:46.528Z,7.20
2022-11-17T15:13:13.098Z,7.30
2022-11-17T15:15:40.607Z,8.75
2022-11-17T15:18:07.302Z,8.77
2022-11-17T15:20:33.830Z,6.97
2022-11-17T15:23:03.240Z,7.60
2022-11-17T15:25:30.730Z,7.50
2022-11-17T15:27:57.495Z,8.50
2022-11-17T15:30:24.202Z,7.82
2022-11-17T15:32:50.918Z,8.25
2022-11-17T15:35:17.452Z,7.88
2022-11-17T15:37:43.989Z,6.93
2022-11-17T15:40:13.947Z,7.72
2022-11-17T15:42:43.029Z,6.90
2022-11-17T15:45:09.961Z,7.65
2022-11-17T15:47:36.570Z,7.40
2022-11-17T15:50:03.131Z,7.47
2022-11-17T15:52:56.723Z,10.10
2022-11-17T15:55:16.152Z,7.18
2022-11-17T15:57:43.301Z,9.20
2022-11-17T16:00:10.266Z,8.35
2022-11-17T16:02:36.798Z,8.98
2022-11-17T16:05:03.589Z,8.70
2022-11-17T16:07:30.233Z,8.93
2022-11-17T16:09:56.923Z,7.50
2022-11-17T16:12:23.909Z,6.80
2022-11-17T16:14:50.411Z,8.55
2022-11-17T16:17:17.015Z,7.00
2022-11-17T16:19:43.798Z,7.35
2022-11-17T16:22:10.292Z,8.45
2022-11-17T16:24:36.790Z,9.27
2022-11-17T16:27:03.393Z,5.85
2022-11-17T16:29:29.935Z,6.95
2022-11-17T16:31:56.475Z,5.57
2022-11-17T16:34:23.052Z,10.05
2022-11-17T16:36:49.585Z,10.15
2022-11-17T16:39:17.314Z,8.57
2022-11-17T16:41:50.197Z,6.57
2022-11-17T16:44:19.339Z,6.90
2022-11-17T16:46:48.149Z,8.25
2022-11-17T16:49:17.168Z,10.02
2022-11-17T16:51:49.158Z,8.18
2022-11-17T16:54:16.189Z,11.30
2022-11-17T16:56:42.781Z,9.50
2022-11-17T16:59:11.070Z,6.13
2022-11-17T17:01:37.931Z,8.60
2022-11-17T17:04:09.940Z,6.70
2022-11-17T17:06:40.019Z,9.48
2022-11-17T17:09:08.455Z,10.07
2022-11-17T17:11:36.462Z,6.72
2022-11-17T17:14:04.761Z,10.48
2022-11-17T17:16:33.337Z,9.63
2022-11-17T17:19:02.026Z,8.65
2022-11-17T17:21:29.187Z,8.55
2022-11-17T17:23:55.747Z,7.70
2022-11-17T17:26:24.765Z,10.18
2022-11-17T17:28:53.919Z,11.82
2022-11-17T17:31:22.522Z,9.60
2022-11-17T17:33:50.530Z,6.30
2022-11-17T17:36:22.579Z,5.15
2022-11-17T17:38:55.106Z,10.63
2022-11-17T17:41:24.874Z,10.48
2022-11-17T17:44:01.239Z,7.90
2022-11-17T17:46:31.857Z,8.27
2022-11-17T17:48:58.643Z,9.65
2022-11-17T17:51:27.442Z,4.10
2022-11-17T17:53:55.939Z,8.05
2022-11-17T17:56:23.113Z,8.77
2022-11-17T17:58:51.605Z,10.65
2022-11-17T18:01:24.554Z,11.27
2022-11-17T18:03:53.729Z,8.68
2022-11-17T18:06:21.670Z,10.05
2022-11-17T18:08:49.268Z,9.50
2022-11-17T18:11:20.293Z,8.18
2022-11-17T18:13:51.830Z,3.70
2022-11-17T18:16:26.838Z,10.20
2022-11-17T18:18:59.135Z,8.10
2022-11-17T18:21:26.621Z,8.23
2022-11-17T18:23:54.425Z,6.60
2022-11-17T18:26:26.712Z,10.60
2022-11-17T18:28:56.284Z,10.88
2022-11-17T18:31:25.128Z,9.68
2022-11-17T18:33:53.345Z,10.73
2022-11-17T18:36:21.194Z,10.68
2022-11-17T18:38:48.000Z,11.13
2022-11-17T18:41:17.058Z,11.68
2022-11-17T18:43:44.257Z,11.82
2022-11-17T18:46:13.320Z,8.65
2022-11-17T18:48:42.159Z,13.52
2022-11-17T18:51:20.871Z,10.93
2022-11-17T18:53:53.215Z,8.82
2022-11-17T18:56:22.936Z,12.63
2022-11-17T18:58:49.886Z,10.93
2022-11-17T19:01:24.968Z,7.75
2022-11-17T19:03:53.570Z,8.73
2022-11-17T19:06:22.644Z,11.63
2022-11-17T19:08:50.302Z,9.15
2022-11-17T19:11:18.651Z,9.35
2022-11-17T19:13:45.906Z,8.82
2022-11-17T19:16:15.010Z,11.52
2022-11-17T19:18:42.051Z,12.95
2022-11-17T19:21:10.584Z,9.23
2022-11-17T19:23:39.579Z,10.07
2022-11-17T19:26:08.639Z,10.82
2022-11-17T19:28:35.765Z,9.70
2022-11-17T19:31:07.503Z,9.68
2022-11-17T19:33:36.031Z,8.68
2022-11-17T19:36:11.624Z,9.63
2022-11-17T19:38:39.587Z,10.43
2022-11-17T19:41:08.243Z,9.88
2022-11-17T19:43:40.318Z,11.15
2022-11-17T19:46:12.547Z,11.82
2022-11-17T19:48:39.834Z,9.65
2022-11-17T19:51:28.004Z,10.35
2022-11-17T19:53:56.222Z,12.50
2022-11-17T19:56:24.195Z,11.75
2022-11-17T19:58:51.263Z,8.95
2022-11-17T20:01:20.072Z,8.07
2022-11-17T20:03:47.205Z,14.73
2022-11-17T20:06:16.449Z,9.00
2022-11-17T20:08:43.992Z,14.02
2022-11-17T20:11:16.752Z,12.63
2022-11-17T20:13:44.300Z,9.35
2022-11-17T20:16:14.041Z,6.05
2022-11-17T20:18:44.847Z,12.18
2022-11-17T20:21:14.011Z,11.68
2022-11-17T20:23:40.993Z,11.63
2022-11-17T20:26:11.708Z,9.82
2022-11-17T20:28:38.914Z,10.30
2022-11-17T20:31:10.503Z,6.32
2022-11-17T20:33:41.772Z,12.80
2022-11-17T20:36:11.581Z,11.68
2022-11-17T20:38:38.081Z,13.00
2022-11-17T20:41:05.875Z,10.43
2022-11-17T20:43:34.194Z,11.65
2022-11-17T20:46:01.359Z,12.38
2022-11-17T20:48:29.157Z,11.13
2022-11-17T20:51:01.215Z,12.27
2022-11-17T20:53:28.427Z,11.50
2022-11-17T20:55:56.562Z,14.05
2022-11-17T20:58:24.124Z,11.68
2022-11-17T21:00:50.955Z,13.63
2022-11-17T21:03:17.993Z,15.38
2022-11-17T21:05:44.646Z,7.18
2022-11-17T21:08:11.567Z,13.32
2022-11-17T21:10:38.185Z,10.40
2022-11-17T21:13:04.772Z,14.15
2022-11-17T21:15:31.393Z,10.50
2022-11-17T21:18:16.515Z,13.00
2022-11-17T21:20:43.057Z,12.38
2022-11-17T21:23:12.457Z,10.82
2022-11-17T21:25:39.220Z,10.60
2022-11-17T21:28:06.041Z,12.93
2022-11-17T21:30:33.633Z,13.35
2022-11-17T21:33:00.207Z,13.35
2022-11-17T21:35:26.782Z,12.25
2022-11-17T21:37:53.353Z,13.43
2022-11-17T21:40:19.893Z,15.57
2022-11-17T21:42:46.479Z,16.33
2022-11-17T21:45:13.240Z,15.77
2022-11-17T21:47:39.872Z,11.25
2022-11-17T21:50:07.133Z,12.15
2022-11-17T21:52:33.714Z,15.23
2022-11-17T21:55:00.468Z,15.30
2022-11-17T21:57:27.212Z,19.60
2022-11-17T21:59:54.021Z,16.85
2022-11-17T22:02:22.147Z,13.80
2022-11-17T22:04:48.704Z,16.40
2022-11-17T22:07:15.336Z,17.95
2022-11-17T22:09:41.861Z,17.27
2022-11-17T22:12:08.401Z,14.00
2022-11-17T22:14:34.867Z,11.45
2022-11-17T22:17:01.710Z,19.40
2022-11-17T22:19:29.426Z,17.75
2022-11-17T22:21:56.097Z,18.00
2022-11-17T22:24:22.776Z,18.02
2022-11-17T22:26:51.441Z,17.60
2022-11-17T22:29:21.617Z,19.25
2022-11-17T22:31:48.983Z,18.80
2022-11-17T22:34:16.650Z,19.52
2022-11-17T22:36:43.242Z,16.17
2022-11-17T22:39:09.845Z,18.35
2022-11-17T22:41:36.434Z,21.25
2022-11-17T22:44:03.327Z,18.95
2022-11-17T22:46:29.841Z,16.05
2022-11-17T22:48:56.539Z,13.48
2022-11-17T22:51:42.838Z,19.45
2022-11-17T22:54:09.540Z,17.23
2022-11-17T22:56:36.119Z,15.60
2022-11-17T22:59:02.813Z,20.02
2022-11-17T23:01:29.377Z,20.83
2022-11-17T23:03:55.949Z,18.25
2022-11-17T23:06:22.863Z,18.95
2022-11-17T23:08:50.061Z,19.63
2022-11-17T23:14:07.713Z,19.95
2022-11-17T23:16:34.334Z,19.73
2022-11-17T23:19:00.857Z,22.77
2022-11-17T23:21:27.355Z,19.63
2022-11-17T23:23:53.939Z,22.30
2022-11-17T23:26:20.458Z,18.83
2022-11-17T23:28:47.124Z,20.58
2022-11-17T23:31:15.576Z,19.85
2022-11-17T23:33:44.571Z,18.63
2022-11-17T23:36:16.711Z,20.23
2022-11-17T23:38:43.269Z,18.67
2022-11-17T23:41:13.289Z,20.70
2022-11-17T23:43:40.440Z,19.98
2022-11-17T23:46:13.162Z,21.00
2022-11-17T23:48:40.415Z,20.63
2022-11-17T23:51:12.677Z,19.90
2022-11-17T23:53:39.448Z,19.58
2022-11-17T23:56:07.028Z,21.73
2022-11-17T23:58:33.681Z,23.20
